Time;durP1;ratioP1;P1;durP2;ratioP2;P2;SDS_P1;SDS_P2;PMS_P1;PMS_P2;Temp;Humidity;BMP_temperature;BMP_pressure;BME280_temperature;BME280_humidity;BME280_pressure;Samples;Min_cycle;Max_cycle;Signal;HPM_P1;HPM_P2
2022/05/03 00:00:11;;;;;;;;;35.80;32.80;;;;;16.65;43.93;101211.00;2005864;29;47898;-62
2022/05/03 00:01:14;;;;;;;;;43.80;37.40;;;;;16.63;43.84;101198.56;2014704;29;47321;-61
2022/05/03 00:02:23;;;;;;;;;38.40;33.00;;;;;16.63;43.63;101201.25;2007100;29;47998;-61
2022/05/03 00:03:39;;;;;;;;;36.60;32.40;;;;;16.63;43.64;101203.94;2007180;29;47736;-61
2022/05/03 00:04:59;;;;;;;;;42.80;34.80;;;;;16.62;44.11;101200.38;2009317;29;47743;-62
2022/05/03 00:06:05;;;;;;;;;38.00;34.60;;;;;16.61;43.95;101200.44;2014691;29;47534;-61
2022/05/03 00:07:23;;;;;;;;;37.20;32.80;;;;;16.60;43.62;101198.69;2015237;29;47851;-61
2022/05/03 00:08:33;;;;;;;;;39.40;34.60;;;;;16.58;43.58;101196.06;2014783;29;47646;-61
2022/05/03 00:09:42;;;;;;;;;35.20;32.20;;;;;16.55;44.16;101198.88;2012692;29;47822;-58
2022/05/03 00:10:49;;;;;;;;;38.00;33.00;;;;;16.55;44.07;101196.19;2006901;29;47880;-60
2022/05/03 00:11:55;;;;;;;;;36.60;33.40;;;;;16.54;43.84;101197.13;2014918;29;47366;-61
2022/05/03 00:13:02;;;;;;;;;38.40;34.40;;;;;16.53;44.11;101192.72;2009998;29;47611;-60
2022/05/03 00:14:41;;;;;;;;;38.40;33.80;;;;;16.50;43.81;101192.81;1999438;29;47353;-60
2022/05/03 00:15:43;;;;;;;;;41.60;37.40;;;;;16.50;43.70;101192.81;1999101;29;47917;-61
2022/05/03 00:16:45;;;;;;;;;40.00;34.00;;;;;16.51;43.88;101191.00;1991821;29;47131;-61
2022/05/03 00:17:47;;;;;;;;;43.80;36.80;;;;;16.50;44.03;101187.44;1998655;29;47742;-61
2022/05/03 00:18:49;;;;;;;;;36.20;33.00;;;;;16.51;43.98;101191.00;2006368;29;47810;-61
2022/05/03 00:19:51;;;;;;;;;35.40;32.40;;;;;16.49;43.93;101191.06;1996973;29;47964;-61
2022/05/03 00:20:52;;;;;;;;;39.20;34.80;;;;;16.48;43.83;101187.50;1998980;29;48100;-60
2022/05/03 00:21:53;;;;;;;;;43.50;36.00;;;;;16.47;44.22;101180.41;1992119;29;47286;-62
2022/05/03 00:22:55;;;;;;;;;35.25;31.75;;;;;16.46;44.47;101181.34;1990548;29;47133;-61
2022/05/03 00:23:55;;;;;;;;;39.80;33.00;;;;;16.45;44.01;101179.59;1991692;29;47820;-61
2022/05/03 00:24:56;;;;;;;;;36.50;33.25;;;;;16.45;44.25;101178.72;1991458;29;47504;-61
2022/05/03 00:25:57;;;;;;;;;35.00;31.00;;;;;16.44;43.84;101185.91;1991657;29;46141;-60
2022/05/03 00:26:57;;;;;;;;;38.50;32.50;;;;;16.42;44.24;101173.50;1991280;29;47522;-60
2022/05/03 00:27:58;;;;;;;;;41.25;34.75;;;;;16.42;43.91;101189.56;1991507;29;47891;-60
2022/05/03 00:28:59;;;;;;;;;44.20;36.40;;;;;16.42;44.01;101184.22;1995198;29;47737;-61
2022/05/03 00:30:01;;;;;;;;;43.50;36.50;;;;;16.41;44.30;101183.34;2021992;29;47248;-60
2022/05/03 00:31:02;;;;;;;;;36.20;33.20;;;;;16.41;43.91;101185.16;2041556;28;47887;-61
2022/05/03 00:32:03;;;;;;;;;37.50;34.00;;;;;16.39;44.36;101190.56;2046370;28;47237;-61
2022/05/03 00:33:09;;;;;;;;;40.60;33.40;;;;;16.39;44.21;101179.84;2041019;28;48200;-60
2022/05/03 00:34:10;;;;;;;;;36.40;32.60;;;;;16.39;44.37;101187.00;2041583;28;47934;-61
2022/05/03 00:35:11;;;;;;;;;40.60;34.60;;;;;16.38;43.81;101183.44;2046164;28;48014;-61
2022/05/03 00:36:11;;;;;;;;;39.00;34.00;;;;;16.37;44.53;101187.03;2064608;28;47860;-61
2022/05/03 00:37:11;;;;;;;;;40.50;33.75;;;;;16.35;44.42;101186.25;2085266;28;47375;-61
2022/05/03 00:38:12;;;;;;;;;43.00;36.25;;;;;16.35;43.96;101180.00;2078888;28;47780;-60
2022/05/03 00:39:12;;;;;;;;;38.25;34.25;;;;;16.33;44.20;101176.53;2078569;28;48116;-60
2022/05/03 00:40:17;;;;;;;;;37.75;33.75;;;;;16.30;44.23;101174.84;2074318;28;48140;-61
2022/05/03 00:41:29;;;;;;;;;38.60;34.00;;;;;16.29;44.15;101173.09;2076782;28;47805;-61
2022/05/03 00:42:33;;;;;;;;;41.60;35.60;;;;;16.27;44.08;101166.94;2078541;28;47814;-60
2022/05/03 00:43:58;;;;;;;;;39.00;33.60;;;;;16.26;44.14;101172.31;2076511;28;47392;-61
2022/05/03 00:45:01;;;;;;;;;35.20;32.20;;;;;16.24;44.67;101177.72;2078658;28;48258;-62
2022/05/03 00:46:07;;;;;;;;;41.40;34.40;;;;;16.22;44.37;101174.25;2054426;28;47730;-62
2022/05/03 00:47:15;;;;;;;;;41.40;36.00;;;;;16.22;44.70;101171.56;2060374;28;48263;-62
2022/05/03 00:48:50;;;;;;;;;41.00;34.20;;;;;16.23;44.34;101177.78;2061948;28;47525;-62
2022/05/03 00:50:06;;;;;;;;;38.20;33.60;;;;;16.19;44.21;101175.25;2058814;28;47592;-60
2022/05/03 00:51:16;;;;;;;;;38.60;33.40;;;;;16.22;44.55;101176.91;2061597;28;47786;-62
2022/05/03 00:52:36;;;;;;;;;37.00;32.00;;;;;16.21;44.56;101171.63;2059975;28;47964;-62
2022/05/03 00:54:00;;;;;;;;;30.40;29.60;;;;;16.20;44.79;101176.09;2053734;28;46066;-62
2022/05/03 00:55:32;;;;;;;;;37.60;34.60;;;;;16.20;44.62;101168.06;2054114;28;47670;-61
2022/05/03 00:56:55;;;;;;;;;41.80;35.80;;;;;16.21;44.72;101172.50;2060945;28;46663;-61
2022/05/03 00:58:29;;;;;;;;;42.00;36.00;;;;;16.19;44.53;101164.53;2062342;28;47724;-62
2022/05/03 00:59:48;;;;;;;;;37.40;34.40;;;;;16.18;44.25;101172.63;2044937;28;48085;-61
2022/05/03 01:01:28;;;;;;;;;41.80;34.40;;;;;16.15;44.26;101170.94;2044473;28;46254;-61
2022/05/03 01:02:52;;;;;;;;;43.40;34.40;;;;;16.12;44.44;101164.81;2057685;28;47415;-63
2022/05/03 01:04:03;;;;;;;;;39.80;34.40;;;;;16.10;44.46;101169.34;2058930;28;47089;-62
2022/05/03 01:05:10;;;;;;;;;39.00;34.20;;;;;16.09;44.64;101172.97;2058206;28;47740;-62
2022/05/03 01:06:24;;;;;;;;;41.60;35.40;;;;;16.08;44.72;101177.44;2045993;28;47127;-60
2022/05/03 01:07:33;;;;;;;;;47.40;36.20;;;;;16.07;44.39;101166.78;2056644;28;47400;-59
2022/05/03 01:08:45;;;;;;;;;37.00;33.20;;;;;16.07;44.72;101174.81;2059831;28;48060;-62
2022/05/03 01:10:11;;;;;;;;;40.80;33.40;;;;;16.06;44.90;101175.75;2056981;28;47530;-62
2022/05/03 01:11:34;;;;;;;;;42.20;36.60;;;;;16.05;44.77;101174.88;2055496;28;47399;-62
2022/05/03 01:12:49;;;;;;;;;37.00;34.20;;;;;16.04;45.03;101165.09;2054232;28;47368;-61
2022/05/03 01:14:06;;;;;;;;;36.60;33.40;;;;;16.04;44.96;101175.81;2053966;28;47248;-61
2022/05/03 01:15:09;;;;;;;;;41.00;34.60;;;;;16.03;44.57;101168.72;2054693;28;48239;-62
2022/05/03 01:16:49;;;;;;;;;41.80;35.00;;;;;16.03;45.00;101173.19;2056672;28;48503;-63
2022/05/03 01:18:09;;;;;;;;;35.00;32.80;;;;;16.02;44.59;101166.09;2048895;28;47674;-63
2022/05/03 01:19:24;;;;;;;;;32.40;30.60;;;;;16.02;44.94;101168.78;2045888;28;48020;-62
2022/05/03 01:20:50;;;;;;;;;38.80;33.60;;;;;16.02;45.00;101163.41;2044822;28;47280;-60
2022/05/03 01:22:32;;;;;;;;;37.40;33.80;;;;;16.00;44.87;101166.13;2045741;28;47810;-62
2022/05/03 01:23:32;;;;;;;;;40.60;35.00;;;;;15.97;44.74;101168.94;2024713;29;47472;-62
2022/05/03 01:24:52;;;;;;;;;38.75;34.25;;;;;15.95;44.40;101162.75;2026895;29;47423;-61
2022/05/03 01:26:04;;;;;;;;;39.40;35.80;;;;;15.95;44.83;101168.13;2022128;29;47877;-61
2022/05/03 01:27:16;;;;;;;;;39.40;33.40;;;;;15.93;44.88;101167.31;2033858;28;47785;-62
2022/05/03 01:28:22;;;;;;;;;39.20;33.40;;;;;15.94;45.20;101165.50;2037768;28;48326;-61
2022/05/03 01:29:33;;;;;;;;;43.40;36.80;;;;;15.92;45.01;101164.69;2037802;28;48028;-62
2022/05/03 01:30:36;;;;;;;;;39.20;35.40;;;;;15.90;45.21;101167.41;2042159;28;47701;-61
2022/05/03 01:31:39;;;;;;;;;41.40;34.80;;;;;15.89;45.21;101163.88;2041303;28;47999;-62
2022/05/03 01:32:43;;;;;;;;;41.40;34.00;;;;;15.91;45.03;101170.97;2046128;28;47717;-62
2022/05/03 01:33:45;;;;;;;;;37.60;34.20;;;;;15.89;45.25;101169.22;2041363;28;47811;-61
2022/05/03 01:34:46;;;;;;;;;37.80;32.80;;;;;15.88;44.92;101169.28;2037863;28;47961;-62
2022/05/03 01:35:56;;;;;;;;;40.40;35.20;;;;;15.86;45.14;101163.09;2037722;28;47521;-61
2022/05/03 01:36:59;;;;;;;;;37.00;33.40;;;;;15.85;44.56;101164.91;2038007;28;48598;-62
2022/05/03 01:38:02;;;;;;;;;42.80;35.00;;;;;15.85;45.11;101170.25;2037872;28;47747;-61
2022/05/03 01:39:21;;;;;;;;;36.40;32.80;;;;;15.85;45.24;101162.22;2037875;28;46592;-61
2022/05/03 01:40:33;;;;;;;;;38.00;32.60;;;;;15.84;45.35;101160.47;2037593;28;47413;-61
2022/05/03 01:41:57;;;;;;;;;42.20;36.00;;;;;15.84;44.75;101162.28;2037355;28;47466;-61
2022/05/03 01:43:25;;;;;;;;;40.00;33.80;;;;;15.83;44.98;101163.22;2037513;28;47344;-60
2022/05/03 01:44:38;;;;;;;;;36.80;31.20;;;;;15.81;44.80;101157.03;2029596;28;47677;-60
2022/05/03 01:46:14;;;;;;;;;35.40;33.00;;;;;15.81;44.90;101162.41;2037789;28;47462;-61
2022/05/03 01:47:26;;;;;;;;;36.00;33.20;;;;;15.80;45.05;101161.53;2038023;28;48104;-60
2022/05/03 01:50:45;;;;;;;;;34.40;31.20;;;;;15.79;45.10;101158.91;2037716;28;47587;-61
2022/05/03 01:52:13;;;;;;;;;36.60;33.00;;;;;15.80;45.38;101157.97;2029751;29;48129;-61
2022/05/03 01:53:36;;;;;;;;;34.20;31.00;;;;;15.77;45.07;101161.63;2029825;29;47485;-61
2022/05/03 01:55:19;;;;;;;;;36.00;32.40;;;;;15.75;44.71;101155.47;2029493;28;47605;-61
2022/05/03 01:56:32;;;;;;;;;32.80;31.40;;;;;15.72;44.96;101160.91;2000773;29;47567;-61
2022/05/03 01:57:54;;;;;;;;;37.60;31.80;;;;;15.70;45.34;101151.19;2004713;29;47903;-61
2022/05/03 01:59:11;;;;;;;;;34.60;31.40;;;;;15.69;45.00;101155.69;2000576;29;47596;-61
2022/05/03 02:00:11;;;;;;;;;36.00;34.00;;;;;15.68;45.07;101145.03;2001918;29;47798;-61
2022/05/03 02:01:41;;;;;;;;;33.25;31.75;;;;;15.66;45.38;101152.25;2016746;29;47868;-61
2022/05/03 02:02:51;;;;;;;;;33.00;31.00;;;;;15.65;45.27;101139.81;2021877;29;47919;-60
2022/05/03 02:04:02;;;;;;;;;35.60;30.80;;;;;15.63;45.35;101147.88;2021718;29;47824;-60
2022/05/03 02:05:06;;;;;;;;;32.40;30.20;;;;;15.63;45.02;101139.00;2021790;29;47699;-61
2022/05/03 02:06:12;;;;;;;;;38.60;32.40;;;;;15.61;45.12;101144.38;2021983;29;47309;-61
2022/05/03 02:07:31;;;;;;;;;38.20;33.20;;;;;15.61;45.22;101141.69;2013644;29;47737;-60
2022/05/03 02:08:51;;;;;;;;;38.60;32.80;;;;;15.60;45.67;101143.50;2016459;29;47933;-60
2022/05/03 02:10:17;;;;;;;;;38.60;32.60;;;;;15.59;45.18;101143.53;2021900;29;47808;-61
2022/05/03 02:11:44;;;;;;;;;36.40;33.40;;;;;15.58;45.21;101148.00;2021967;29;48033;-60
2022/05/03 02:12:52;;;;;;;;;35.60;31.80;;;;;15.57;45.55;101145.38;1991221;29;47686;-61
2022/05/03 02:15:39;;;;;;;;;38.20;32.00;;;;;15.53;45.19;101139.28;1994840;29;48220;-60
2022/05/03 02:16:53;;;;;;;;;37.00;32.20;;;;;15.52;45.39;101142.00;1998631;29;47755;-60
2022/05/03 02:18:05;;;;;;;;;30.20;27.40;;;;;15.51;45.38;101143.81;1998987;29;48555;-59
2022/05/03 02:19:13;;;;;;;;;37.60;33.00;;;;;15.51;45.39;101142.94;1999132;29;47430;-61
2022/05/03 02:20:40;;;;;;;;;37.20;31.80;;;;;15.50;45.76;101150.09;1995599;29;48020;-60
2022/05/03 02:22:04;;;;;;;;;32.20;29.20;;;;;15.48;45.36;101146.56;1992566;29;47725;-63
2022/05/03 02:23:41;;;;;;;;;35.80;31.60;;;;;15.49;45.40;101151.00;1990931;29;47235;-60
2022/05/03 02:24:58;;;;;;;;;34.00;31.60;;;;;15.48;45.15;101151.03;1991299;29;48293;-61
2022/05/03 02:26:28;;;;;;;;;33.40;32.60;;;;;15.46;45.57;101147.56;1992530;29;47754;-61
2022/05/03 02:27:31;;;;;;;;;34.00;31.80;;;;;15.44;45.34;101144.06;1999800;29;48062;-61
2022/05/03 02:28:56;;;;;;;;;34.80;31.80;;;;;15.44;45.60;101154.75;2013260;29;47522;-61
2022/05/03 02:29:57;;;;;;;;;38.80;33.20;;;;;15.43;45.52;101150.34;2031391;28;48391;-61
2022/05/03 02:31:03;;;;;;;;;36.20;32.60;;;;;15.43;45.64;101151.22;2040917;28;47913;-61
2022/05/03 02:32:08;;;;;;;;;32.40;31.20;;;;;15.41;45.82;101154.88;2029221;29;47954;-60
2022/05/03 02:33:26;;;;;;;;;34.60;30.80;;;;;15.40;45.49;101150.47;2038241;28;47705;-60
2022/05/03 02:34:44;;;;;;;;;40.00;35.00;;;;;15.37;45.68;101145.19;2061662;28;47388;-61
2022/05/03 02:35:51;;;;;;;;;36.20;32.40;;;;;15.37;45.72;101154.09;2061592;28;47925;-60
2022/05/03 02:36:59;;;;;;;;;37.60;33.80;;;;;15.34;45.67;101148.84;2061675;28;47940;-60
2022/05/03 02:38:05;;;;;;;;;36.40;32.80;;;;;15.34;45.91;101150.66;2059822;28;48063;-61
2022/05/03 02:39:06;;;;;;;;;36.60;33.00;;;;;15.31;45.87;101144.50;2061589;28;47517;-60
2022/05/03 02:40:08;;;;;;;;;33.50;31.25;;;;;15.32;45.63;101148.03;2058147;28;48051;-60
2022/05/03 02:41:11;;;;;;;;;32.60;30.00;;;;;15.31;45.93;101157.84;2061014;28;47751;-61
2022/05/03 02:42:13;;;;;;;;;38.40;34.00;;;;;15.32;46.05;101158.72;2062849;28;47955;-60
2022/05/03 02:43:16;;;;;;;;;38.60;32.60;;;;;15.32;45.81;101156.06;2063024;28;48176;-61
2022/05/03 02:44:20;;;;;;;;;32.40;31.00;;;;;15.30;46.02;101157.91;2063055;28;48333;-60
2022/05/03 02:45:21;;;;;;;;;39.20;31.00;;;;;15.29;46.35;101162.38;2062972;28;47891;-60
2022/05/03 02:46:52;;;;;;;;;36.25;32.00;;;;;15.26;46.04;101157.16;2052958;28;47686;-60
2022/05/03 02:48:18;;;;;;;;;34.40;31.60;;;;;15.24;46.11;101153.63;2053884;28;47766;-60
2022/05/03 02:49:22;;;;;;;;;36.60;32.00;;;;;15.22;46.03;101155.50;2060604;28;47611;-59
2022/05/03 02:50:40;;;;;;;;;41.40;34.60;;;;;15.20;46.10;101160.03;2079371;28;47292;-61
2022/05/03 02:51:54;;;;;;;;;36.60;33.00;;;;;15.19;46.16;101155.59;2095373;28;48188;-61
2022/05/03 02:53:09;;;;;;;;;34.20;30.40;;;;;15.19;45.96;101160.06;2097301;28;47564;-61
2022/05/03 02:54:45;;;;;;;;;34.40;31.60;;;;;15.17;46.17;101168.16;2088248;28;47159;-61
2022/05/03 02:56:19;;;;;;;;;38.60;33.00;;;;;15.15;46.45;101164.66;2096899;28;47800;-60
2022/05/03 02:57:55;;;;;;;;;40.00;32.60;;;;;15.13;46.26;101160.31;2094679;28;48064;-60
2022/05/03 02:59:10;;;;;;;;;39.40;34.40;;;;;15.12;46.11;101166.53;2066899;28;47815;-60
2022/05/03 03:01:54;;;;;;;;;35.60;31.60;;;;;15.08;45.92;101160.44;2057333;28;47934;-61
2022/05/03 03:03:18;;;;;;;;;38.60;34.00;;;;;15.08;46.54;101159.56;2062884;28;47522;-61
2022/05/03 03:04:40;;;;;;;;;37.20;32.60;;;;;15.08;46.19;101165.78;2060774;28;48103;-61
2022/05/03 03:05:46;;;;;;;;;39.60;35.20;;;;;15.08;46.24;101154.22;2062586;28;47815;-60
2022/05/03 03:06:53;;;;;;;;;38.80;34.40;;;;;15.08;46.43;101159.56;2063086;28;47730;-60
2022/05/03 03:08:01;;;;;;;;;36.00;33.60;;;;;15.07;46.49;101157.81;2063431;28;47389;-61
2022/05/03 03:09:03;;;;;;;;;35.00;31.80;;;;;15.08;46.47;101156.88;2065847;28;47910;-61
2022/05/03 03:10:05;;;;;;;;;32.40;31.20;;;;;15.07;46.43;101161.34;2067593;28;47394;-61
2022/05/03 03:11:07;;;;;;;;;42.20;35.20;;;;;15.08;46.31;101156.88;2063049;28;47582;-60
2022/05/03 03:12:08;;;;;;;;;34.40;32.00;;;;;15.09;46.69;101155.97;2066461;28;47565;-61
2022/05/03 03:13:15;;;;;;;;;37.60;32.20;;;;;15.07;46.40;101153.34;2066719;28;47412;-60
2022/05/03 03:14:34;;;;;;;;;36.40;31.80;;;;;15.09;46.40;101153.28;2062597;28;47074;-60
2022/05/03 03:15:38;;;;;;;;;28.20;26.80;;;;;15.08;46.04;101155.09;2064488;28;48420;-59
2022/05/03 03:16:47;;;;;;;;;38.20;32.40;;;;;15.08;46.21;101155.09;2066982;28;47517;-61
2022/05/03 03:17:51;;;;;;;;;40.20;35.00;;;;;15.10;46.39;101152.34;2062734;28;48199;-61
2022/05/03 03:18:52;;;;;;;;;43.80;35.80;;;;;15.08;46.46;101149.75;2062793;28;47966;-61
2022/05/03 03:20:02;;;;;;;;;40.80;35.60;;;;;15.09;46.14;101159.50;2063281;28;47266;-60
2022/05/03 03:21:07;;;;;;;;;40.60;35.40;;;;;15.09;46.01;101150.59;2065460;28;47579;-61
2022/05/03 03:22:15;;;;;;;;;40.60;35.40;;;;;15.08;46.24;101154.22;2063609;28;47856;-60
2022/05/03 03:23:18;;;;;;;;;38.80;32.80;;;;;15.07;46.14;101156.00;2067353;28;47326;-58
2022/05/03 03:24:21;;;;;;;;;41.60;34.20;;;;;15.05;46.41;101157.00;2065526;28;47737;-61
2022/05/03 03:25:23;;;;;;;;;35.60;33.20;;;;;15.06;46.28;101161.41;2064159;28;47548;-61
2022/05/03 03:26:26;;;;;;;;;37.40;33.00;;;;;15.05;46.16;101159.66;2066871;28;47971;-60
2022/05/03 03:27:28;;;;;;;;;38.00;33.40;;;;;15.04;46.28;101157.91;2062888;28;47835;-61
2022/05/03 03:28:29;;;;;;;;;42.80;36.60;;;;;15.06;46.26;101164.09;2060301;28;47739;-60
2022/05/03 03:29:31;;;;;;;;;43.80;36.60;;;;;15.06;46.27;101158.75;2062714;28;47918;-61
2022/05/03 03:30:31;;;;;;;;;39.60;34.80;;;;;15.06;46.31;101156.94;2062716;28;47757;-61
2022/05/03 03:31:35;;;;;;;;;41.25;34.25;;;;;15.06;46.19;101150.72;2054902;28;48038;-61
2022/05/03 03:32:38;;;;;;;;;39.40;34.00;;;;;15.08;46.25;101159.56;2054923;28;47579;-62
2022/05/03 03:33:41;;;;;;;;;41.40;34.80;;;;;15.07;46.60;101156.00;2062776;28;47925;-61
2022/05/03 03:34:42;;;;;;;;;41.20;34.40;;;;;15.07;46.19;101153.34;2062274;28;47400;-60
2022/05/03 03:35:44;;;;;;;;;36.60;33.20;;;;;15.08;46.60;101154.22;2062655;28;47518;-60
2022/05/03 03:36:48;;;;;;;;;41.80;36.40;;;;;15.08;46.24;101151.53;2073936;28;47495;-60
2022/05/03 03:37:50;;;;;;;;;44.40;37.20;;;;;15.07;46.59;101148.00;2081682;28;47583;-61
2022/05/03 03:38:50;;;;;;;;;40.00;34.20;;;;;15.09;46.50;101147.94;2088311;28;47630;-60
2022/05/03 03:39:51;;;;;;;;;34.75;32.00;;;;;15.09;46.61;101146.13;2086758;28;48110;-61
2022/05/03 03:40:51;;;;;;;;;43.00;37.00;;;;;15.09;46.46;101146.13;2063040;28;46524;-60
2022/05/03 03:41:52;;;;;;;;;42.50;35.00;;;;;15.08;46.37;101144.38;2070822;28;47995;-61
2022/05/03 03:42:53;;;;;;;;;41.50;34.75;;;;;15.07;46.49;101145.31;2087546;28;47310;-61
2022/05/03 03:43:54;;;;;;;;;36.00;32.60;;;;;15.07;46.52;101148.00;2082540;28;47621;-61
2022/05/03 03:45:08;;;;;;;;;40.25;32.25;;;;;15.05;46.37;101139.16;2087598;28;47895;-59
2022/05/03 03:46:08;;;;;;;;;43.80;35.40;;;;;15.05;46.53;101143.63;2088063;28;47943;-60
2022/05/03 03:47:09;;;;;;;;;42.50;35.25;;;;;15.04;46.46;101141.88;2088216;28;47407;-60
2022/05/03 03:48:10;;;;;;;;;39.75;34.75;;;;;15.02;46.11;101136.59;2087868;28;48012;-60
2022/05/03 03:49:10;;;;;;;;;43.00;37.00;;;;;15.02;46.35;101148.16;2088065;28;47344;-61
2022/05/03 03:50:13;;;;;;;;;40.50;35.00;;;;;15.00;46.27;101144.66;2088463;28;47452;-60
2022/05/03 03:51:14;;;;;;;;;40.80;35.60;;;;;15.00;46.46;101139.31;2088107;28;48408;-61
2022/05/03 03:52:15;;;;;;;;;39.60;35.00;;;;;14.99;46.32;101142.00;2088464;28;47507;-60
2022/05/03 03:53:16;;;;;;;;;37.20;32.80;;;;;14.99;46.39;101136.66;2087505;28;47821;-61
2022/05/03 03:54:16;;;;;;;;;45.00;36.50;;;;;14.98;46.49;101149.16;2088057;28;47388;-61
2022/05/03 03:55:18;;;;;;;;;43.00;34.50;;;;;14.97;46.59;101139.41;2088214;28;47522;-61
2022/05/03 03:56:19;;;;;;;;;38.80;33.60;;;;;14.97;46.60;101149.22;2088065;28;47773;-61
2022/05/03 03:57:21;;;;;;;;;42.80;35.20;;;;;14.96;46.74;101136.78;2087905;28;46795;-61
2022/05/03 03:58:22;;;;;;;;;40.00;34.80;;;;;14.96;46.46;101143.00;2088009;28;48109;-60
2022/05/03 03:59:23;;;;;;;;;38.75;33.00;;;;;14.96;46.56;101143.00;2088024;28;47551;-60
2022/05/03 04:00:24;;;;;;;;;47.40;36.60;;;;;14.96;46.47;101151.00;2087808;28;47976;-61
2022/05/03 04:01:25;;;;;;;;;42.50;34.75;;;;;14.96;46.63;101152.81;2087669;28;48002;-62
2022/05/03 04:02:26;;;;;;;;;38.00;33.20;;;;;14.96;46.55;101145.66;2088630;28;47474;-60
2022/05/03 04:03:27;;;;;;;;;44.20;35.80;;;;;14.97;46.49;101149.22;2087579;28;48242;-61
2022/05/03 04:04:36;;;;;;;;;40.00;34.50;;;;;14.96;46.83;101144.78;2088050;28;46331;-62
2022/05/03 04:05:37;;;;;;;;;39.60;35.00;;;;;14.95;46.54;101149.28;2088493;28;47547;-61
2022/05/03 04:06:38;;;;;;;;;41.80;35.40;;;;;14.96;46.80;101155.47;2087913;28;47198;-61
2022/05/03 04:07:38;;;;;;;;;40.50;35.50;;;;;14.95;46.64;101153.75;2088026;28;47746;-61
2022/05/03 04:08:39;;;;;;;;;44.75;36.75;;;;;14.95;46.54;101146.59;2088011;28;48067;-60
2022/05/03 04:09:39;;;;;;;;;48.00;38.00;;;;;14.94;46.53;101143.97;2087968;28;47633;-62
2022/05/03 04:10:40;;;;;;;;;45.00;38.00;;;;;14.92;46.44;101149.38;2088083;28;46992;-61
2022/05/03 04:11:43;;;;;;;;;41.75;34.25;;;;;14.91;46.53;101144.09;2085589;28;47889;-61
2022/05/03 04:12:43;;;;;;;;;41.20;34.60;;;;;14.90;46.64;101145.00;2087775;28;47456;-64
2022/05/03 04:13:44;;;;;;;;;44.50;37.25;;;;;14.90;47.04;101145.00;2087598;28;47288;-62
2022/05/03 04:14:45;;;;;;;;;39.20;33.60;;;;;14.88;46.84;101147.75;2087767;28;47530;-63
2022/05/03 04:15:46;;;;;;;;;47.50;36.50;;;;;14.88;46.80;101150.41;2078205;28;48321;-61
2022/05/03 04:16:47;;;;;;;;;44.00;35.75;;;;;14.88;47.28;101152.22;2060840;28;47345;-62
2022/05/03 04:17:48;;;;;;;;;45.60;37.60;;;;;14.88;46.65;101160.22;2075098;28;47699;-63
2022/05/03 04:18:48;;;;;;;;;44.50;36.50;;;;;14.89;46.68;101153.97;2087341;28;47701;-62
2022/05/03 04:19:49;;;;;;;;;37.00;33.25;;;;;14.89;46.68;101152.16;2087185;28;47297;-60
2022/05/03 04:20:49;;;;;;;;;42.75;35.00;;;;;14.90;46.64;101158.38;2078206;28;47458;-62
2022/05/03 04:21:50;;;;;;;;;36.25;32.50;;;;;14.88;46.82;101152.22;2078527;28;47668;-63
2022/05/03 04:22:51;;;;;;;;;43.80;36.20;;;;;14.88;46.72;101153.09;2087869;28;46167;-62
2022/05/03 04:23:51;;;;;;;;;32.00;29.75;;;;;14.89;47.03;101148.63;2088201;28;48655;-63
2022/05/03 04:24:52;;;;;;;;;42.50;36.00;;;;;14.89;46.92;101161.97;2088116;28;48165;-62
2022/05/03 04:25:53;;;;;;;;;41.00;35.20;;;;;14.88;46.83;101157.56;2088094;28;48187;-61
2022/05/03 04:26:53;;;;;;;;;36.75;31.00;;;;;14.88;47.02;101155.75;2087726;28;47699;-61
2022/05/03 04:27:54;;;;;;;;;42.75;36.00;;;;;14.85;46.77;101153.16;2087847;28;47659;-61
2022/05/03 04:29:04;;;;;;;;;45.00;38.00;;;;;14.84;46.98;101156.75;2087625;28;47635;-62
2022/05/03 04:30:05;;;;;;;;;43.40;36.80;;;;;14.82;46.92;101158.59;2079518;28;47634;-62
2022/05/03 04:31:06;;;;;;;;;42.80;36.80;;;;;14.81;46.88;101162.22;2078993;28;47467;-62
2022/05/03 04:32:07;;;;;;;;;42.25;34.50;;;;;14.80;46.70;101159.59;2086805;28;47529;-60
2022/05/03 04:33:08;;;;;;;;;39.00;33.00;;;;;14.78;46.89;101158.75;2087836;28;47869;-60
2022/05/03 04:34:08;;;;;;;;;45.50;37.25;;;;;14.77;47.02;101160.56;2084482;28;47518;-60
2022/05/03 04:35:09;;;;;;;;;45.50;37.50;;;;;14.78;46.92;101156.97;2081064;28;47231;-61
2022/05/03 04:36:09;;;;;;;;;44.25;36.25;;;;;14.79;47.22;101160.50;2087822;28;46517;-61
2022/05/03 04:37:10;;;;;;;;;44.25;37.25;;;;;14.78;46.93;101150.75;2087604;28;47962;-61
2022/05/03 04:38:10;;;;;;;;;44.75;37.75;;;;;14.78;46.82;101156.09;2088220;28;47623;-63
2022/05/03 04:39:11;;;;;;;;;43.25;36.25;;;;;14.77;46.83;101157.91;2087852;28;47644;-61
2022/05/03 04:40:11;;;;;;;;;41.75;35.00;;;;;14.78;46.79;101156.09;2087699;28;48252;-61
2022/05/03 04:41:11;;;;;;;;;41.75;34.75;;;;;14.76;46.88;101163.28;2087534;28;47431;-61
2022/05/03 04:42:12;;;;;;;;;46.50;37.75;;;;;14.77;47.03;101159.69;2095596;28;48020;-62
2022/05/03 04:43:13;;;;;;;;;40.75;35.00;;;;;14.76;46.83;101169.50;2095422;28;47610;-60
2022/05/03 04:44:13;;;;;;;;;41.25;35.50;;;;;14.76;47.20;101164.16;2079488;28;47361;-60
2022/05/03 04:45:14;;;;;;;;;43.00;35.75;;;;;14.76;46.82;101157.94;2084080;28;47650;-61
2022/05/03 04:46:14;;;;;;;;;40.50;35.25;;;;;14.74;46.76;101160.69;2088134;28;47607;-61
2022/05/03 04:47:15;;;;;;;;;43.75;36.50;;;;;14.72;47.02;101158.03;2087599;28;47369;-60
2022/05/03 04:48:15;;;;;;;;;40.50;35.00;;;;;14.72;47.11;101167.84;2089850;28;46816;-61
2022/05/03 04:49:16;;;;;;;;;45.25;36.25;;;;;14.71;47.07;101160.75;2094926;28;46357;-59
2022/05/03 04:50:16;;;;;;;;;47.00;38.00;;;;;14.71;47.24;101160.75;2087739;28;47898;-60
2022/05/03 04:51:22;;;;;;;;;44.00;36.75;;;;;14.70;47.24;101164.34;2087627;28;47547;-60
2022/05/03 04:52:23;;;;;;;;;45.40;37.20;;;;;14.70;46.99;101161.66;2087830;28;47623;-60
2022/05/03 04:53:23;;;;;;;;;45.25;36.75;;;;;14.71;47.02;101155.41;2087468;28;47547;-60
2022/05/03 04:54:24;;;;;;;;;46.50;36.50;;;;;14.71;47.30;101156.28;2087330;28;46119;-61
2022/05/03 04:55:24;;;;;;;;;43.50;37.50;;;;;14.72;46.94;101150.00;2086645;28;47384;-58
2022/05/03 04:56:25;;;;;;;;;44.75;38.00;;;;;14.71;47.22;101156.28;2090574;28;47520;-59
2022/05/03 04:57:26;;;;;;;;;42.00;35.75;;;;;14.70;47.01;101150.97;2087583;28;47788;-59
2022/05/03 04:58:26;;;;;;;;;47.00;37.50;;;;;14.70;47.17;101148.31;2087718;28;47789;-60
2022/05/03 04:59:27;;;;;;;;;28.00;24.50;;;;;14.68;47.27;101159.06;2094720;28;48581;-60
2022/05/03 05:00:27;;;;;;;;;42.00;35.75;;;;;14.67;47.39;101154.63;2093634;28;48049;-60
2022/05/03 05:01:28;;;;;;;;;49.50;39.50;;;;;14.66;47.10;101150.22;2088310;28;47307;-60
2022/05/03 05:02:29;;;;;;;;;50.40;39.40;;;;;14.66;47.15;101155.56;2091302;28;48035;-61
2022/05/03 05:03:29;;;;;;;;;44.00;36.25;;;;;14.66;47.02;101155.56;2087615;28;47600;-60
2022/05/03 05:04:30;;;;;;;;;43.50;36.25;;;;;14.65;47.07;101158.28;2095269;28;48172;-60
2022/05/03 05:05:30;;;;;;;;;41.00;36.50;;;;;14.64;47.53;101165.41;2093532;28;47662;-61
2022/05/03 05:06:31;;;;;;;;;43.25;37.25;;;;;14.65;47.50;101160.94;2087699;28;47861;-61
2022/05/03 05:07:31;;;;;;;;;46.00;37.25;;;;;14.64;47.24;101162.75;2094146;28;47487;-60
2022/05/03 05:08:31;;;;;;;;;41.50;34.50;;;;;14.63;47.21;101165.47;2095818;28;47940;-61
2022/05/03 05:09:32;;;;;;;;;41.00;34.75;;;;;14.62;47.27;101166.41;2096221;28;48161;-60
2022/05/03 05:10:33;;;;;;;;;44.25;37.75;;;;;14.59;47.34;101155.78;2091283;28;47233;-59
2022/05/03 05:11:34;;;;;;;;;48.00;40.20;;;;;14.59;47.42;101163.78;2087590;28;47624;-61
2022/05/03 05:12:34;;;;;;;;;41.25;35.25;;;;;14.57;47.58;101165.66;2087648;28;47558;-61
2022/05/03 05:13:36;;;;;;;;;43.75;37.50;;;;;14.58;47.57;101162.94;2087468;28;47657;-60